SHK156 EGKK-LGRP
Flight info
| Callsign | SHK156 |
|---|---|
| Flight time | N/A |
| Altitude | 37000 |
| Route | ODVIK Y311 DVR UL9 KONAN DCT KOK DCT REMBA DCT LIRSU DCT LALMI DCT ABTAL DCT LATLO DCT OBEDI DCT KFT DCT OLEZE DCT TEBLI DCT MEDUX UM867 KOGAT DCT ERANA DCT TSL UN130 MES UN139 LURUS UL995 CODIC |
| Aircraft | B77W/H-SDE1E2E3FGHIJ2J3J4J5M1RWXY/LB1D1 |
Departure
| Time | 2026-05-04 17:08 |
|---|---|
| Airport | London Gatwick Airport (EGKK) |
Arrival
| Time | N/A |
|---|---|
| Airport | Rhodes International Airport "Diagoras" (LGRP) |
| Time | Latitude | Longitude | Altitude | Speed | Heading |
|---|---|---|---|---|---|
| 2026-05-04 16:12 | 51.15922 | -0.17964 | 199 ft | 0 kts | 77° |
| 2026-05-04 16:53 | 51.15919 | -0.17982 | 199 ft | 2 kts | 77° |
| 2026-05-04 16:53 | 51.15913 | -0.18052 | 198 ft | 2 kts | 104° |
| 2026-05-04 16:54 | 51.15918 | -0.18075 | 197 ft | 2 kts | 119° |
| 2026-05-04 16:55 | 51.15958 | -0.18122 | 196 ft | 0 kts | 168° |
| 2026-05-04 16:55 | 51.15958 | -0.18123 | 196 ft | 0 kts | 168° |
| 2026-05-04 16:58 | 51.15825 | -0.18075 | 197 ft | 7 kts | 168° |
| 2026-05-04 16:58 | 51.15776 | -0.18057 | 198 ft | 6 kts | 167° |
| 2026-05-04 16:59 | 51.15677 | -0.18124 | 196 ft | 14 kts | 250° |
| 2026-05-04 17:00 | 51.15598 | -0.18674 | 199 ft | 13 kts | 257° |
| 2026-05-04 17:00 | 51.15379 | -0.18769 | 199 ft | 16 kts | 167° |
| 2026-05-04 17:01 | 51.15171 | -0.18701 | 202 ft | 9 kts | 184° |
| 2026-05-04 17:01 | 51.15097 | -0.18953 | 202 ft | 16 kts | 257° |
| 2026-05-04 17:02 | 51.15032 | -0.19426 | 199 ft | 23 kts | 258° |
| 2026-05-04 17:02 | 51.14966 | -0.19905 | 201 ft | 19 kts | 258° |
| 2026-05-04 17:03 | 51.14937 | -0.20113 | 202 ft | 19 kts | 257° |
| 2026-05-04 17:03 | 51.14908 | -0.20328 | 204 ft | 20 kts | 257° |
| 2026-05-04 17:03 | 51.14842 | -0.20807 | 202 ft | 21 kts | 258° |
| 2026-05-04 17:04 | 51.14779 | -0.21203 | 205 ft | 16 kts | 255° |
| 2026-05-04 17:04 | 51.14691 | -0.21380 | 209 ft | 11 kts | 149° |
| 2026-05-04 17:05 | 51.14648 | -0.21343 | 209 ft | 0 kts | 164° |
| 2026-05-04 17:05 | 51.14632 | -0.21336 | 209 ft | 7 kts | 164° |
| 2026-05-04 17:06 | 51.14528 | -0.21118 | 205 ft | 10 kts | 80° |
| 2026-05-04 17:06 | 51.14529 | -0.21110 | 205 ft | 0 kts | 79° |
| 2026-05-04 17:07 | 51.14529 | -0.21109 | 205 ft | 1 kts | 79° |
| 2026-05-04 17:07 | 51.14537 | -0.21044 | 205 ft | 20 kts | 79° |
| 2026-05-04 17:07 | 51.14674 | -0.20048 | 202 ft | 114 kts | 78° |
| 2026-05-04 17:07 | 51.14889 | -0.18502 | 214 ft | 168 kts | 75° |
| 2026-05-04 17:08 | 51.15159 | -0.16571 | 572 ft | 187 kts | 76° |
| 2026-05-04 17:08 | 51.15726 | -0.12399 | 2079 ft | 199 kts | 76° |
| 2026-05-04 17:08 | 51.16033 | -0.10179 | 2522 ft | 213 kts | 76° |
| 2026-05-04 17:09 | 51.16369 | -0.07782 | 2956 ft | 230 kts | 77° |
| 2026-05-04 17:09 | 51.16716 | -0.05211 | 3387 ft | 248 kts | 76° |
| 2026-05-04 17:09 | 51.16912 | -0.02438 | 4004 ft | 258 kts | 89° |
| 2026-05-04 17:10 | 51.16780 | 0.03362 | 5412 ft | 269 kts | 91° |
| 2026-05-04 17:10 | 51.16601 | 0.12397 | 7565 ft | 280 kts | 91° |
| 2026-05-04 17:11 | 51.16547 | 0.15472 | 8366 ft | 280 kts | 91° |
| 2026-05-04 17:11 | 51.16538 | 0.18563 | 9067 ft | 283 kts | 89° |
| 2026-05-04 17:11 | 51.16573 | 0.24831 | 10442 ft | 287 kts | 89° |
| 2026-05-04 17:12 | 51.16580 | 0.28017 | 11141 ft | 291 kts | 89° |
| 2026-05-04 17:12 | 51.16589 | 0.34489 | 12560 ft | 299 kts | 89° |
| 2026-05-04 17:13 | 51.16595 | 0.45203 | 13947 ft | 348 kts | 89° |
| 2026-05-04 17:14 | 51.16591 | 0.57467 | 15722 ft | 391 kts | 90° |
| 2026-05-04 17:14 | 51.16586 | 0.61807 | 16610 ft | 397 kts | 90° |
| 2026-05-04 17:14 | 51.16572 | 0.70659 | 18393 ft | 408 kts | 91° |
| 2026-05-04 17:15 | 51.16562 | 0.75183 | 19220 ft | 414 kts | 91° |
| 2026-05-04 17:15 | 51.16536 | 0.84455 | 20805 ft | 428 kts | 91° |
| 2026-05-04 17:16 | 51.16502 | 0.94022 | 22334 ft | 440 kts | 92° |
| 2026-05-04 17:16 | 51.16433 | 1.08860 | 24554 ft | 457 kts | 92° |
| 2026-05-04 17:17 | 51.16406 | 1.13902 | 25398 ft | 459 kts | 92° |
| 2026-05-04 17:17 | 51.16308 | 1.29314 | 27399 ft | 474 kts | 92° |
| 2026-05-04 17:18 | 51.16271 | 1.34568 | 28077 ft | 478 kts | 92° |
| 2026-05-04 17:18 | 51.15910 | 1.45172 | 29379 ft | 485 kts | 96° |
| 2026-05-04 17:19 | 51.15362 | 1.55750 | 31311 ft | 477 kts | 97° |
| 2026-05-04 17:19 | 51.14825 | 1.66214 | 32716 ft | 473 kts | 97° |
| 2026-05-04 17:20 | 51.14286 | 1.76753 | 33767 ft | 475 kts | 97° |
| 2026-05-04 17:20 | 51.13746 | 1.87237 | 34851 ft | 472 kts | 97° |
| 2026-05-04 17:20 | 51.13476 | 1.92429 | 35249 ft | 472 kts | 97° |
| 2026-05-04 17:21 | 51.12932 | 2.02793 | 35966 ft | 471 kts | 97° |
| 2026-05-04 17:21 | 51.12379 | 2.13160 | 36228 ft | 473 kts | 97° |
| 2026-05-04 17:22 | 51.12099 | 2.18356 | 36501 ft | 474 kts | 97° |
| 2026-05-04 17:22 | 51.11816 | 2.23559 | 36858 ft | 474 kts | 97° |
| 2026-05-04 17:23 | 51.10952 | 2.39218 | 36978 ft | 474 kts | 97° |
| 2026-05-04 17:23 | 51.10660 | 2.44407 | 36981 ft | 474 kts | 97° |
| 2026-05-04 17:24 | 51.09769 | 2.60042 | 36981 ft | 474 kts | 97° |
| 2026-05-04 17:24 | 51.07655 | 2.75237 | 36977 ft | 470 kts | 109° |
| 2026-05-04 17:25 | 51.06756 | 2.80203 | 36976 ft | 469 kts | 109° |
| 2026-05-04 17:26 | 51.03129 | 3.00104 | 36975 ft | 469 kts | 109° |
| 2026-05-04 17:27 | 50.98549 | 3.24926 | 36969 ft | 469 kts | 109° |
| 2026-05-04 17:28 | 50.94853 | 3.44719 | 36950 ft | 470 kts | 109° |
| 2026-05-04 17:29 | 50.89241 | 3.74372 | 36956 ft | 469 kts | 110° |
| 2026-05-04 17:31 | 50.84507 | 3.99030 | 36954 ft | 470 kts | 110° |
| 2026-05-04 17:32 | 50.79719 | 4.23646 | 36954 ft | 472 kts | 110° |
| 2026-05-04 17:33 | 50.75850 | 4.43316 | 36961 ft | 470 kts | 110° |
| 2026-05-04 17:34 | 50.71941 | 4.62982 | 36962 ft | 470 kts | 110° |